Time;durP1;ratioP1;P1;durP2;ratioP2;P2;SDS_P1;SDS_P2;PMS_P1;PMS_P2;Temp;Humidity;BMP_temperature;BMP_pressure;BME280_temperature;BME280_humidity;BME280_pressure;Samples;Min_cycle;Max_cycle;Signal;HPM_P1;HPM_P2
2024/04/14 00:01:26;;;;;;;2.50;2.40;;;;;;;;;;5453970;26;20214;-58
2024/04/14 00:03:58;;;;;;;3.33;3.13;;;;;;;;;;5443064;26;20242;-58
2024/04/14 00:06:27;;;;;;;4.53;3.17;;;;;;;;;;5451527;26;20772;-58
2024/04/14 00:08:56;;;;;;;9.93;8.97;;;;;;;;;;5452884;26;20218;-59
2024/04/14 00:11:22;;;;;;;12.37;10.17;;;;;;;;;;5453860;26;20702;-58
2024/04/14 00:13:51;;;;;;;10.80;9.80;;;;;;;;;;5451850;26;20238;-58
2024/04/14 00:16:18;;;;;;;14.77;12.37;;;;;;;;;;5438710;26;20230;-59
2024/04/14 00:18:47;;;;;;;12.87;11.80;;;;;;;;;;5453080;26;20230;-59
2024/04/14 00:21:13;;;;;;;13.37;12.33;;;;;;;;;;5453867;26;20221;-58
2024/04/14 00:23:45;;;;;;;14.50;11.37;;;;;;;;;;5447210;26;20276;-58
2024/04/14 00:26:11;;;;;;;10.60;9.80;;;;;;;;;;5446742;26;20222;-59
2024/04/14 00:28:41;;;;;;;10.23;9.37;;;;;;;;;;5452913;26;20230;-59
2024/04/14 00:31:07;;;;;;;10.43;9.73;;;;;;;;;;5451585;26;20273;-59
2024/04/14 00:33:37;;;;;;;9.33;8.63;;;;;;;;;;5441140;26;20269;-59
2024/04/14 00:36:03;;;;;;;9.40;8.60;;;;;;;;;;5438486;26;20656;-58
2024/04/14 00:38:32;;;;;;;11.03;8.83;;;;;;;;;;5452825;26;20726;-59
2024/04/14 00:41:01;;;;;;;9.20;8.37;;;;;;;;;;5453313;26;20694;-59
2024/04/14 00:43:30;;;;;;;8.80;8.10;;;;;;;;;;5442682;26;20227;-59
2024/04/14 00:45:56;;;;;;;7.33;6.57;;;;;;;;;;5439955;26;20269;-59
2024/04/14 00:48:25;;;;;;;6.70;5.60;;;;;;;;;;5434340;26;20278;-58
2024/04/14 00:50:52;;;;;;;4.60;4.37;;;;;;;;;;5417303;26;20258;-58
2024/04/14 00:53:22;;;;;;;5.53;5.10;;;;;;;;;;5417428;26;20208;-58
2024/04/14 00:55:48;;;;;;;5.00;4.60;;;;;;;;;;5416762;26;20605;-59
2024/04/14 00:58:20;;;;;;;3.70;3.40;;;;;;;;;;5440455;26;20269;-58
2024/04/14 01:00:46;;;;;;;5.03;4.73;;;;;;;;;;5426123;26;20582;-58
2024/04/14 01:03:15;;;;;;;4.93;4.60;;;;;;;;;;5423011;26;20295;-58
2024/04/14 01:05:41;;;;;;;7.83;5.10;;;;;;;;;;5440557;26;20270;-59
2024/04/14 01:08:10;;;;;;;4.40;4.10;;;;;;;;;;5452577;26;20818;-57
2024/04/14 01:10:37;;;;;;;4.07;3.77;;;;;;;;;;5444879;26;20692;-58
2024/04/14 01:13:06;;;;;;;5.47;2.47;;;;;;;;;;5445372;26;20231;-58
2024/04/14 01:15:35;;;;;;;2.00;1.50;;;;;;;;;;5452401;26;20268;-58
2024/04/14 01:18:07;;;;;;;1.80;0.90;;;;;;;;;;5452832;26;20338;-58
2024/04/14 01:20:34;;;;;;;0.97;0.90;;;;;;;;;;5452834;26;20580;-59
2024/04/14 01:23:06;;;;;;;1.20;1.10;;;;;;;;;;5442343;26;20273;-58
2024/04/14 01:25:35;;;;;;;2.97;0.73;;;;;;;;;;5452811;26;20234;-58
2024/04/14 01:28:04;;;;;;;1.13;0.73;;;;;;;;;;5452757;26;20234;-58
2024/04/14 01:30:30;;;;;;;4.70;0.90;;;;;;;;;;5452261;26;20223;-58
2024/04/14 01:33:02;;;;;;;2.40;0.70;;;;;;;;;;5439226;26;20643;-58
2024/04/14 01:35:28;;;;;;;0.70;0.70;;;;;;;;;;5449234;26;20226;-58
2024/04/14 01:37:57;;;;;;;3.40;1.27;;;;;;;;;;5437629;26;20234;-58
2024/04/14 01:40:24;;;;;;;2.03;0.70;;;;;;;;;;5438335;26;20739;-58
2024/04/14 01:42:59;;;;;;;1.77;0.83;;;;;;;;;;5442938;26;20326;-58
2024/04/14 01:45:25;;;;;;;1.87;0.53;;;;;;;;;;5445223;26;20272;-58
2024/04/14 01:47:54;;;;;;;1.83;0.90;;;;;;;;;;5440155;26;20245;-58
2024/04/14 01:50:21;;;;;;;2.57;0.80;;;;;;;;;;5434177;26;20755;-58
2024/04/14 01:52:50;;;;;;;0.50;0.50;;;;;;;;;;5416448;26;20223;-58
2024/04/14 01:55:16;;;;;;;1.13;0.53;;;;;;;;;;5416458;26;20223;-58
2024/04/14 01:57:45;;;;;;;0.40;0.40;;;;;;;;;;5422925;26;20286;-59
2024/04/14 02:00:14;;;;;;;0.80;0.80;;;;;;;;;;5442593;26;20750;-58
2024/04/14 02:02:43;;;;;;;5.20;0.60;;;;;;;;;;5452251;26;20230;-58
2024/04/14 02:05:09;;;;;;;2.77;0.70;;;;;;;;;;5450853;26;20222;-58
2024/04/14 02:07:38;;;;;;;2.30;0.70;;;;;;;;;;5451051;26;20238;-58
2024/04/14 02:10:05;;;;;;;1.17;0.50;;;;;;;;;;5450221;26;20218;-58
2024/04/14 02:12:34;;;;;;;1.10;1.00;;;;;;;;;;5450411;26;20230;-58
2024/04/14 02:15:00;;;;;;;1.23;1.10;;;;;;;;;;5446488;26;20222;-58
2024/04/14 02:17:32;;;;;;;2.20;0.70;;;;;;;;;;5447876;26;20235;-59
2024/04/14 02:19:58;;;;;;;1.37;0.70;;;;;;;;;;5432668;26;20593;-58
2024/04/14 02:22:27;;;;;;;3.73;0.93;;;;;;;;;;5448417;26;20226;-59
2024/04/14 02:24:53;;;;;;;2.00;1.10;;;;;;;;;;5441160;26;20223;-59
2024/04/14 02:27:22;;;;;;;1.07;0.60;;;;;;;;;;5415896;26;20231;-58
2024/04/14 02:29:48;;;;;;;1.03;0.90;;;;;;;;;;5415246;26;20246;-58
2024/04/14 02:32:17;;;;;;;1.67;0.80;;;;;;;;;;5445218;26;20242;-59
2024/04/14 02:34:46;;;;;;;1.87;0.60;;;;;;;;;;5439300;26;20269;-59
2024/04/14 02:37:15;;;;;;;1.30;0.40;;;;;;;;;;5441174;26;20290;-58
2024/04/14 02:39:41;;;;;;;0.50;0.50;;;;;;;;;;5451020;26;20269;-58
2024/04/14 02:42:10;;;;;;;1.77;0.50;;;;;;;;;;5451739;26;20219;-58
2024/04/14 02:44:36;;;;;;;1.27;0.40;;;;;;;;;;5451644;26;20219;-59
2024/04/14 02:47:05;;;;;;;0.70;0.50;;;;;;;;;;5449706;26;20234;-58
2024/04/14 02:49:32;;;;;;;0.73;0.47;;;;;;;;;;5450757;26;20273;-59
2024/04/14 02:52:03;;;;;;;1.63;0.50;;;;;;;;;;5451504;26;20698;-58
2024/04/14 02:54:29;;;;;;;1.57;0.50;;;;;;;;;;5451518;26;20256;-58
2024/04/14 02:56:59;;;;;;;0.50;0.50;;;;;;;;;;5427822;26;20290;-58
2024/04/14 02:59:26;;;;;;;3.17;1.40;;;;;;;;;;5435480;26;20829;-58
2024/04/14 03:01:55;;;;;;;1.57;0.40;;;;;;;;;;5451147;26;20227;-58
2024/04/14 03:04:21;;;;;;;2.67;0.70;;;;;;;;;;5447971;26;20765;-59
2024/04/14 03:06:50;;;;;;;1.00;0.50;;;;;;;;;;5438992;26;20574;-58
2024/04/14 03:09:19;;;;;;;0.40;0.30;;;;;;;;;;5450516;26;20226;-58
2024/04/14 03:11:48;;;;;;;1.70;0.30;;;;;;;;;;5451189;26;20230;-60
2024/04/14 03:14:14;;;;;;;0.60;0.30;;;;;;;;;;5451065;26;20230;-60
2024/04/14 03:16:43;;;;;;;1.67;0.40;;;;;;;;;;5442639;26;20270;-59
2024/04/14 03:19:09;;;;;;;0.70;0.47;;;;;;;;;;5425827;26;20234;-60
2024/04/14 03:21:38;;;;;;;1.77;0.73;;;;;;;;;;5446405;26;20334;-60
2024/04/14 03:24:05;;;;;;;1.13;0.50;;;;;;;;;;5435177;26;20236;-60
2024/04/14 03:26:36;;;;;;;0.80;0.30;;;;;;;;;;5445582;26;20278;-60
2024/04/14 03:29:02;;;;;;;1.80;0.40;;;;;;;;;;5433303;26;20238;-60
2024/04/14 03:31:31;;;;;;;1.03;0.50;;;;;;;;;;5435576;26;21151;-60
2024/04/14 03:33:57;;;;;;;0.43;0.43;;;;;;;;;;5442940;26;20260;-60
2024/04/14 03:36:26;;;;;;;2.30;1.30;;;;;;;;;;5444806;26;20317;-60
2024/04/14 03:38:55;;;;;;;0.60;0.60;;;;;;;;;;5441820;26;20234;-60
2024/04/14 03:41:24;;;;;;;0.60;0.60;;;;;;;;;;5427447;26;20274;-60
2024/04/14 03:43:55;;;;;;;0.70;0.70;;;;;;;;;;5436597;26;20288;-60
2024/04/14 03:46:24;;;;;;;0.70;0.40;;;;;;;;;;5447299;26;20284;-60
2024/04/14 03:48:53;;;;;;;0.33;0.33;;;;;;;;;;5429092;26;20277;-60
2024/04/14 03:51:19;;;;;;;1.90;0.40;;;;;;;;;;5446227;26;20234;-60
2024/04/14 03:53:48;;;;;;;1.27;0.40;;;;;;;;;;5449440;26;20308;-60
2024/04/14 03:56:15;;;;;;;0.67;0.50;;;;;;;;;;5449127;26;20661;-60
2024/04/14 03:58:43;;;;;;;0.80;0.67;;;;;;;;;;5446289;26;20293;-60
2024/04/14 04:01:12;;;;;;;1.83;0.70;;;;;;;;;;5449413;26;20222;-60
2024/04/14 04:03:41;;;;;;;3.90;0.60;;;;;;;;;;5447449;26;20222;-60
2024/04/14 04:06:08;;;;;;;0.60;0.60;;;;;;;;;;5448510;26;20222;-60
2024/04/14 04:08:37;;;;;;;0.53;0.53;;;;;;;;;;5447132;26;20227;-60
2024/04/14 04:11:04;;;;;;;0.50;0.50;;;;;;;;;;5441175;26;20235;-60
2024/04/14 04:13:33;;;;;;;1.07;0.40;;;;;;;;;;5446307;26;20272;-61
2024/04/14 04:16:00;;;;;;;0.43;0.37;;;;;;;;;;5446196;26;20234;-60
2024/04/14 04:18:32;;;;;;;1.67;0.47;;;;;;;;;;5448046;26;20230;-60
2024/04/14 04:20:59;;;;;;;0.70;0.50;;;;;;;;;;5448236;26;20226;-60
2024/04/14 04:23:28;;;;;;;4.23;0.50;;;;;;;;;;5445338;26;20286;-60
2024/04/14 04:25:56;;;;;;;0.80;0.80;;;;;;;;;;5448929;26;20281;-60
2024/04/14 04:28:25;;;;;;;0.47;0.37;;;;;;;;;;5446114;26;20274;-60
2024/04/14 04:30:51;;;;;;;2.73;1.07;;;;;;;;;;5437511;26;20258;-60
2024/04/14 04:33:20;;;;;;;1.07;0.87;;;;;;;;;;5450846;26;20238;-60
2024/04/14 04:35:56;;;;;;;0.93;0.93;;;;;;;;;;5452256;26;20562;-60
2024/04/14 04:38:25;;;;;;;0.80;0.80;;;;;;;;;;5451207;26;20269;-61
2024/04/14 04:40:51;;;;;;;1.10;1.00;;;;;;;;;;5445329;26;20273;-60
2024/04/14 04:43:20;;;;;;;1.10;1.00;;;;;;;;;;5451896;26;20335;-60
2024/04/14 04:45:46;;;;;;;1.47;1.10;;;;;;;;;;5452326;26;20226;-60
2024/04/14 04:48:15;;;;;;;3.07;0.90;;;;;;;;;;5443609;26;20582;-60
2024/04/14 04:50:45;;;;;;;2.10;1.53;;;;;;;;;;5452076;26;20226;-60
2024/04/14 04:53:16;;;;;;;1.23;1.13;;;;;;;;;;5452099;26;20234;-60
2024/04/14 04:55:44;;;;;;;3.27;1.07;;;;;;;;;;5450215;26;20229;-60
2024/04/14 04:58:13;;;;;;;0.77;0.77;;;;;;;;;;5443107;26;20285;-60
2024/04/14 05:00:39;;;;;;;2.37;1.13;;;;;;;;;;5439498;26;20260;-60
2024/04/14 05:03:08;;;;;;;0.70;0.70;;;;;;;;;;5451957;26;20795;-60
2024/04/14 05:05:34;;;;;;;2.37;1.13;;;;;;;;;;5437406;26;20272;-60
2024/04/14 05:08:04;;;;;;;1.13;1.10;;;;;;;;;;5449862;26;20249;-60
2024/04/14 05:10:32;;;;;;;0.87;0.87;;;;;;;;;;5450856;26;20871;-60
2024/04/14 05:13:05;;;;;;;3.30;1.10;;;;;;;;;;5451770;26;20269;-60
2024/04/14 05:15:31;;;;;;;0.80;0.80;;;;;;;;;;5450031;26;20279;-60
2024/04/14 05:18:00;;;;;;;3.63;1.00;;;;;;;;;;5445499;26;20289;-60
2024/04/14 05:20:26;;;;;;;3.57;1.23;;;;;;;;;;5451038;26;20334;-60
2024/04/14 05:22:55;;;;;;;2.60;0.93;;;;;;;;;;5451541;26;20230;-60
2024/04/14 05:25:21;;;;;;;3.87;1.00;;;;;;;;;;5430823;26;20231;-59
2024/04/14 05:27:53;;;;;;;1.17;1.10;;;;;;;;;;5451177;26;20242;-60
2024/04/14 05:30:19;;;;;;;1.10;0.80;;;;;;;;;;5450954;26;20273;-60
2024/04/14 05:32:48;;;;;;;3.13;0.80;;;;;;;;;;5448409;26;20264;-60
2024/04/14 05:35:14;;;;;;;2.60;1.13;;;;;;;;;;5443904;26;20318;-60
2024/04/14 05:37:43;;;;;;;0.80;0.57;;;;;;;;;;5451645;26;20250;-60
2024/04/14 05:40:10;;;;;;;1.20;0.93;;;;;;;;;;5443361;26;20271;-60
2024/04/14 05:42:39;;;;;;;1.40;1.10;;;;;;;;;;5449537;26;20230;-60
2024/04/14 05:45:08;;;;;;;3.57;1.30;;;;;;;;;;5450604;26;20230;-60
2024/04/14 05:47:37;;;;;;;1.40;1.30;;;;;;;;;;5451167;26;20238;-60
2024/04/14 05:50:04;;;;;;;2.43;1.87;;;;;;;;;;5447256;26;20311;-60
2024/04/14 05:52:33;;;;;;;1.73;1.57;;;;;;;;;;5451206;26;20226;-61
2024/04/14 05:54:59;;;;;;;0.93;0.93;;;;;;;;;;5445341;26;20274;-60
2024/04/14 05:57:28;;;;;;;1.50;1.30;;;;;;;;;;5444350;26;20290;-60
2024/04/14 05:59:54;;;;;;;1.37;0.83;;;;;;;;;;5437731;26;20230;-60
2024/04/14 06:02:26;;;;;;;1.10;1.10;;;;;;;;;;5445151;26;20276;-60
2024/04/14 06:04:52;;;;;;;0.87;0.87;;;;;;;;;;5450013;26;20568;-60
2024/04/14 06:07:21;;;;;;;1.73;1.63;;;;;;;;;;5448270;26;20245;-60
2024/04/14 06:09:47;;;;;;;2.53;1.17;;;;;;;;;;5449818;26;20272;-61
2024/04/14 06:12:16;;;;;;;2.07;0.83;;;;;;;;;;5450806;26;20230;-60
2024/04/14 06:14:43;;;;;;;0.80;0.80;;;;;;;;;;5435244;26;20590;-60
2024/04/14 06:17:11;;;;;;;1.07;0.40;;;;;;;;;;5440876;26;20762;-60
2024/04/14 06:19:40;;;;;;;1.13;0.40;;;;;;;;;;5448214;26;20234;-61
2024/04/14 06:22:09;;;;;;;1.37;0.60;;;;;;;;;;5450497;26;20268;-60
2024/04/14 06:24:36;;;;;;;1.20;0.40;;;;;;;;;;5448989;26;20230;-60
2024/04/14 06:27:05;;;;;;;0.40;0.40;;;;;;;;;;5443627;26;20288;-61
2024/04/14 06:29:31;;;;;;;3.10;0.57;;;;;;;;;;5447146;26;20234;-60
2024/04/14 06:32:00;;;;;;;0.63;0.63;;;;;;;;;;5432892;26;20766;-60
2024/04/14 06:34:26;;;;;;;0.60;0.50;;;;;;;;;;5430732;26;20340;-60
2024/04/14 06:36:58;;;;;;;0.87;0.67;;;;;;;;;;5450255;26;20238;-60
2024/04/14 06:39:24;;;;;;;0.70;0.60;;;;;;;;;;5449616;26;20281;-60
2024/04/14 06:41:54;;;;;;;1.50;0.60;;;;;;;;;;5448275;26;20308;-60
2024/04/14 06:44:20;;;;;;;2.27;0.50;;;;;;;;;;5445290;26;20834;-61
2024/04/14 06:46:49;;;;;;;2.57;0.50;;;;;;;;;;5448673;26;20307;-61
2024/04/14 06:49:15;;;;;;;0.83;0.40;;;;;;;;;;5444702;26;20238;-60
2024/04/14 06:51:44;;;;;;;1.43;0.50;;;;;;;;;;5445595;26;20710;-61
2024/04/14 06:54:14;;;;;;;0.80;0.40;;;;;;;;;;5441052;26;20234;-60
2024/04/14 06:56:43;;;;;;;1.33;0.70;;;;;;;;;;5443435;26;20281;-61
2024/04/14 06:59:09;;;;;;;1.23;0.30;;;;;;;;;;5442931;26;20277;-61
2024/04/14 07:01:36;;;;;;;2.30;0.40;;;;;;;;;;5447795;26;20246;-61
2024/04/14 07:04:05;;;;;;;0.30;0.30;;;;;;;;;;5447741;26;20277;-61
2024/04/14 07:06:31;;;;;;;0.30;0.30;;;;;;;;;;5447051;26;21120;-61
2024/04/14 07:09:00;;;;;;;1.13;0.30;;;;;;;;;;5442307;26;20249;-61
2024/04/14 07:11:29;;;;;;;0.80;0.50;;;;;;;;;;5448738;26;20230;-61
2024/04/14 07:13:58;;;;;;;1.50;0.40;;;;;;;;;;5443983;26;20281;-61
2024/04/14 07:16:24;;;;;;;2.97;0.50;;;;;;;;;;5444269;26;20280;-61
2024/04/14 07:18:53;;;;;;;0.57;0.57;;;;;;;;;;5440751;26;20442;-61
2024/04/14 07:21:20;;;;;;;0.45;0.32;;;;;;;;;;5441813;26;20234;-61
2024/04/14 07:23:49;;;;;;;0.95;0.30;;;;;;;;;;5443711;26;20247;-61
2024/04/14 07:26:15;;;;;;;0.43;0.40;;;;;;;;;;5438963;26;20925;-61
2024/04/14 07:28:46;;;;;;;2.15;0.50;;;;;;;;;;5428229;26;20644;-61
2024/04/14 07:31:13;;;;;;;0.40;0.40;;;;;;;;;;5438178;26;20289;-61
2024/04/14 07:33:41;;;;;;;2.00;0.50;;;;;;;;;;5433340;26;20226;-61
2024/04/14 07:36:08;;;;;;;0.63;0.20;;;;;;;;;;5444742;26;20238;-61
2024/04/14 07:38:37;;;;;;;1.52;0.35;;;;;;;;;;5445613;26;20811;-61
2024/04/14 07:41:03;;;;;;;0.28;0.28;;;;;;;;;;5438061;26;20231;-60
2024/04/14 07:43:32;;;;;;;0.45;0.40;;;;;;;;;;5435490;26;20230;-61
2024/04/14 07:46:01;;;;;;;0.40;0.40;;;;;;;;;;5443156;26;20579;-61
2024/04/14 07:48:29;;;;;;;0.30;0.30;;;;;;;;;;5442758;26;20832;-63
2024/04/14 07:50:56;;;;;;;3.40;0.38;;;;;;;;;;5445336;26;20230;-66
2024/04/14 07:53:25;;;;;;;1.40;0.40;;;;;;;;;;5444967;26;20234;-68
2024/04/14 07:55:54;;;;;;;1.35;0.30;;;;;;;;;;5448511;26;20702;-69
2024/04/14 07:58:23;;;;;;;0.20;0.20;;;;;;;;;;5444901;26;20238;-67
2024/04/14 08:00:49;;;;;;;0.45;0.38;;;;;;;;;;5433513;26;20235;-66
2024/04/14 08:03:21;;;;;;;0.63;0.43;;;;;;;;;;5449724;26;20226;-69
2024/04/14 08:05:47;;;;;;;2.33;0.50;;;;;;;;;;5452227;26;20230;-70
2024/04/14 08:08:16;;;;;;;0.57;0.57;;;;;;;;;;5453024;26;20238;-65
2024/04/14 08:10:42;;;;;;;0.30;0.30;;;;;;;;;;5439091;26;20261;-65
2024/04/14 08:13:11;;;;;;;0.30;0.30;;;;;;;;;;5453260;26;20342;-67
2024/04/14 08:15:38;;;;;;;0.52;0.40;;;;;;;;;;5452787;26;20234;-68
2024/04/14 08:18:07;;;;;;;0.88;0.50;;;;;;;;;;5444816;26;20235;-61
2024/04/14 08:20:36;;;;;;;1.75;0.80;;;;;;;;;;5449723;26;20269;-65
2024/04/14 08:23:05;;;;;;;0.80;0.40;;;;;;;;;;5453262;26;20276;-65
2024/04/14 08:25:32;;;;;;;0.75;0.40;;;;;;;;;;5452336;26;20269;-65
2024/04/14 08:28:03;;;;;;;1.00;0.50;;;;;;;;;;5453031;26;20289;-63
2024/04/14 08:30:29;;;;;;;1.38;0.82;;;;;;;;;;5452129;26;20230;-63
2024/04/14 08:32:58;;;;;;;0.65;0.40;;;;;;;;;;5451860;26;20238;-64
2024/04/14 08:35:24;;;;;;;0.93;0.40;;;;;;;;;;5447991;26;20702;-68
2024/04/14 08:37:56;;;;;;;0.50;0.40;;;;;;;;;;5445274;26;20294;-64
2024/04/14 08:40:22;;;;;;;2.58;0.50;;;;;;;;;;5444452;26;20235;-63
2024/04/14 08:42:51;;;;;;;0.63;0.43;;;;;;;;;;5434720;26;20243;-64
2024/04/14 08:45:22;;;;;;;1.08;0.50;;;;;;;;;;5440538;26;20342;-64
2024/04/14 08:47:53;;;;;;;1.27;0.40;;;;;;;;;;5429406;26;20746;-63
2024/04/14 08:50:20;;;;;;;0.95;0.32;;;;;;;;;;5451345;26;20234;-63
2024/04/14 08:52:49;;;;;;;1.88;0.50;;;;;;;;;;5452568;26;20277;-63
2024/04/14 08:55:18;;;;;;;0.50;0.50;;;;;;;;;;5442167;26;20280;-62
2024/04/14 08:57:47;;;;;;;0.30;0.30;;;;;;;;;;5448074;26;20293;-63
2024/04/14 09:00:15;;;;;;;1.00;0.57;;;;;;;;;;5451673;26;20273;-63
2024/04/14 09:02:45;;;;;;;0.30;0.30;;;;;;;;;;5441051;26;20230;-63
2024/04/14 09:05:15;;;;;;;2.28;0.60;;;;;;;;;;5448591;26;20307;-63
2024/04/14 09:07:41;;;;;;;0.30;0.30;;;;;;;;;;5450944;26;20281;-63
2024/04/14 09:10:10;;;;;;;0.90;0.40;;;;;;;;;;5449585;26;20234;-63
2024/04/14 09:12:46;;;;;;;0.77;0.40;;;;;;;;;;5447972;26;20238;-62
2024/04/14 09:15:16;;;;;;;1.60;0.47;;;;;;;;;;5434578;26;20241;-63
2024/04/14 09:17:43;;;;;;;2.15;1.08;;;;;;;;;;5450575;26;20234;-64
2024/04/14 09:20:12;;;;;;;0.50;0.47;;;;;;;;;;5445161;26;20257;-63
2024/04/14 09:22:39;;;;;;;3.47;0.63;;;;;;;;;;5452038;26;20764;-63
2024/04/14 09:25:10;;;;;;;0.55;0.43;;;;;;;;;;5452121;26;20226;-63
2024/04/14 09:27:36;;;;;;;2.28;0.43;;;;;;;;;;5447699;26;20293;-65
2024/04/14 09:30:16;;;;;;;0.40;0.40;;;;;;;;;;5451493;26;20238;-65
2024/04/14 09:32:43;;;;;;;0.55;0.50;;;;;;;;;;5452913;26;20761;-66
2024/04/14 09:35:12;;;;;;;0.77;0.40;;;;;;;;;;5451712;26;20313;-65
2024/04/14 09:37:39;;;;;;;2.10;0.50;;;;;;;;;;5452123;26;20242;-65
2024/04/14 09:40:09;;;;;;;0.40;0.40;;;;;;;;;;5451861;26;20682;-64
2024/04/14 09:42:36;;;;;;;1.95;0.50;;;;;;;;;;5449654;26;20343;-62
2024/04/14 09:45:05;;;;;;;0.50;0.50;;;;;;;;;;5449063;26;20234;-61
2024/04/14 09:47:37;;;;;;;1.13;0.60;;;;;;;;;;5448463;26;20235;-62
2024/04/14 09:50:06;;;;;;;0.90;0.40;;;;;;;;;;5447314;26;21047;-65
2024/04/14 09:52:33;;;;;;;2.60;0.50;;;;;;;;;;5448592;26;20277;-62
2024/04/14 09:55:02;;;;;;;0.60;0.40;;;;;;;;;;5448762;26;20722;-62
2024/04/14 09:57:28;;;;;;;0.52;0.50;;;;;;;;;;5448838;26;20285;-62
2024/04/14 09:59:58;;;;;;;0.55;0.40;;;;;;;;;;5450594;26;20303;-62
2024/04/14 10:02:28;;;;;;;1.77;0.60;;;;;;;;;;5451887;26;20254;-63
2024/04/14 10:05:02;;;;;;;0.55;0.40;;;;;;;;;;5443627;26;20235;-63
2024/04/14 10:07:29;;;;;;;1.95;0.57;;;;;;;;;;5450131;26;20229;-63
2024/04/14 10:09:58;;;;;;;0.77;0.40;;;;;;;;;;5477230;21;20304;-59
2024/04/14 10:12:24;;;;;;;0.75;0.50;;;;;;;;;;5472790;26;20222;-59
2024/04/14 10:14:54;;;;;;;0.57;0.57;;;;;;;;;;5474843;26;20557;-60
2024/04/14 10:17:21;;;;;;;1.30;0.55;;;;;;;;;;5475320;26;20824;-59
2024/04/14 10:19:54;;;;;;;0.75;0.70;;;;;;;;;;5465432;26;20254;-61
2024/04/14 10:22:29;;;;;;;0.93;0.70;;;;;;;;;;5432867;26;20281;-61
2024/04/14 10:24:59;;;;;;;1.75;0.60;;;;;;;;;;5437192;26;20778;-60
2024/04/14 10:27:25;;;;;;;1.92;0.80;;;;;;;;;;5437686;26;20235;-60
2024/04/14 10:30:00;;;;;;;2.28;0.50;;;;;;;;;;5444550;26;20288;-59
2024/04/14 10:32:26;;;;;;;0.82;0.40;;;;;;;;;;5454105;26;20281;-60
2024/04/14 10:34:55;;;;;;;2.45;0.82;;;;;;;;;;5455138;26;20361;-61
2024/04/14 10:37:25;;;;;;;3.13;0.60;;;;;;;;;;5432521;26;20235;-59
2024/04/14 10:39:54;;;;;;;0.80;0.50;;;;;;;;;;5412916;26;20235;-60
2024/04/14 10:42:21;;;;;;;3.35;0.43;;;;;;;;;;5422618;26;20242;-59
2024/04/14 10:44:50;;;;;;;5.75;0.70;;;;;;;;;;5427682;26;20301;-59
2024/04/14 10:47:17;;;;;;;2.63;0.43;;;;;;;;;;5434577;26;20496;-58
2024/04/14 10:49:46;;;;;;;1.77;0.50;;;;;;;;;;5427208;26;20323;-58
2024/04/14 10:52:13;;;;;;;1.13;1.10;;;;;;;;;;5428954;26;20273;-58
2024/04/14 10:54:44;;;;;;;1.85;0.60;;;;;;;;;;5437452;26;20531;-58
2024/04/14 10:57:11;;;;;;;1.65;0.90;;;;;;;;;;5437880;26;20230;-58
2024/04/14 10:59:40;;;;;;;4.85;0.70;;;;;;;;;;5437387;26;20358;-58
2024/04/14 11:02:06;;;;;;;3.38;0.63;;;;;;;;;;5438190;26;20277;-58
2024/04/14 11:04:36;;;;;;;1.25;0.63;;;;;;;;;;5437341;26;20230;-58
2024/04/14 11:07:04;;;;;;;0.90;0.75;;;;;;;;;;5426004;26;20235;-58
2024/04/14 11:09:34;;;;;;;0.75;0.75;;;;;;;;;;5431838;26;20265;-58
2024/04/14 11:12:04;;;;;;;1.15;0.60;;;;;;;;;;5436856;26;20265;-57
2024/04/14 11:14:33;;;;;;;0.73;0.50;;;;;;;;;;5436273;26;20364;-57
2024/04/14 11:17:09;;;;;;;0.90;0.50;;;;;;;;;;5437206;26;20570;-57
2024/04/14 11:19:39;;;;;;;0.60;0.60;;;;;;;;;;5436541;26;20297;-57
2024/04/14 11:22:05;;;;;;;0.60;0.60;;;;;;;;;;5436744;26;20278;-59
2024/04/14 11:24:35;;;;;;;3.80;0.60;;;;;;;;;;5437161;26;20603;-57
2024/04/14 11:27:04;;;;;;;2.35;1.17;;;;;;;;;;5410805;26;20235;-57
2024/04/14 11:29:33;;;;;;;4.00;0.90;;;;;;;;;;5420297;26;20804;-57
2024/04/14 11:32:07;;;;;;;0.77;0.63;;;;;;;;;;5424288;26;20322;-58
2024/04/14 11:34:36;;;;;;;0.50;0.50;;;;;;;;;;5415534;26;20319;-58
2024/04/14 11:37:02;;;;;;;2.30;0.60;;;;;;;;;;5428904;26;20258;-58
2024/04/14 11:39:31;;;;;;;0.77;0.75;;;;;;;;;;5436170;26;20281;-57
2024/04/14 11:41:57;;;;;;;0.60;0.60;;;;;;;;;;5437278;26;20760;-57
2024/04/14 11:44:29;;;;;;;3.88;0.70;;;;;;;;;;5436838;26;20230;-59
2024/04/14 11:46:56;;;;;;;0.75;0.75;;;;;;;;;;5436039;26;20776;-59
2024/04/14 11:49:25;;;;;;;1.73;0.60;;;;;;;;;;5433512;26;20392;-60
2024/04/14 11:51:51;;;;;;;1.23;0.90;;;;;;;;;;5435426;26;20277;-60
2024/04/14 11:54:21;;;;;;;3.00;0.95;;;;;;;;;;5436193;26;20334;-60
2024/04/14 11:56:47;;;;;;;2.55;1.52;;;;;;;;;;5437259;26;20265;-60
2024/04/14 11:59:16;;;;;;;0.90;0.90;;;;;;;;;;5437814;26;20342;-60
2024/04/14 12:01:45;;;;;;;5.53;1.45;;;;;;;;;;5438425;26;20308;-60
2024/04/14 12:04:14;;;;;;;1.60;1.50;;;;;;;;;;5438748;26;20276;-59
2024/04/14 12:06:41;;;;;;;4.50;1.25;;;;;;;;;;5438222;26;20668;-59
2024/04/14 12:09:10;;;;;;;1.02;1.02;;;;;;;;;;5437701;26;20805;-59
2024/04/14 12:11:39;;;;;;;2.30;1.27;;;;;;;;;;5437594;26;20580;-59
2024/04/14 12:14:06;;;;;;;0.93;0.93;;;;;;;;;;5438313;26;20237;-60
2024/04/14 12:16:35;;;;;;;1.40;1.30;;;;;;;;;;5453198;26;20242;-61
2024/04/14 12:19:04;;;;;;;1.50;1.30;;;;;;;;;;5437303;26;20226;-61
2024/04/14 12:21:34;;;;;;;3.45;1.25;;;;;;;;;;5436445;26;20293;-59
2024/04/14 12:24:01;;;;;;;0.80;0.80;;;;;;;;;;5436781;26;20750;-60
2024/04/14 12:26:30;;;;;;;2.15;1.20;;;;;;;;;;5432924;26;20286;-60
2024/04/14 12:28:56;;;;;;;1.30;1.25;;;;;;;;;;5428297;26;20265;-60
2024/04/14 12:31:25;;;;;;;3.65;1.60;;;;;;;;;;5449876;26;20721;-60
2024/04/14 12:33:51;;;;;;;2.13;1.33;;;;;;;;;;5422854;26;20223;-59
2024/04/14 12:36:23;;;;;;;3.42;1.58;;;;;;;;;;5437535;26;20227;-59
2024/04/14 12:38:49;;;;;;;1.10;1.10;;;;;;;;;;5422984;26;20226;-59
2024/04/14 12:41:20;;;;;;;1.95;1.05;;;;;;;;;;5437077;26;20227;-59
2024/04/14 12:43:46;;;;;;;1.48;1.30;;;;;;;;;;5438552;26;20277;-59
2024/04/14 12:46:15;;;;;;;1.70;1.38;;;;;;;;;;5437551;26;20374;-59
2024/04/14 12:48:43;;;;;;;0.90;0.90;;;;;;;;;;5437075;26;20231;-59
2024/04/14 12:51:12;;;;;;;1.35;1.25;;;;;;;;;;5438955;26;20230;-59
2024/04/14 12:53:41;;;;;;;1.58;1.35;;;;;;;;;;5444110;26;20574;-59
2024/04/14 12:56:10;;;;;;;1.02;1.00;;;;;;;;;;5441165;26;20226;-60
2024/04/14 12:58:37;;;;;;;0.90;0.90;;;;;;;;;;5439405;26;20273;-59
2024/04/14 13:01:05;;;;;;;0.77;0.77;;;;;;;;;;5440941;26;20281;-59
2024/04/14 13:03:32;;;;;;;3.15;1.10;;;;;;;;;;5441127;26;20261;-59
2024/04/14 13:06:01;;;;;;;1.00;1.00;;;;;;;;;;5440878;26;20282;-59
2024/04/14 13:08:28;;;;;;;1.58;1.25;;;;;;;;;;5440318;26;20382;-60
2024/04/14 13:11:00;;;;;;;3.72;1.13;;;;;;;;;;5440263;26;20272;-59
2024/04/14 13:13:26;;;;;;;1.30;1.30;;;;;;;;;;5437344;26;20324;-59
2024/04/14 13:15:55;;;;;;;2.10;1.40;;;;;;;;;;5440228;26;20290;-59
2024/04/14 13:18:21;;;;;;;1.30;1.20;;;;;;;;;;5438089;26;20227;-59
2024/04/14 13:20:50;;;;;;;1.65;1.33;;;;;;;;;;5425906;26;20343;-59
2024/04/14 13:23:20;;;;;;;2.70;1.20;;;;;;;;;;5440563;26;20276;-60
2024/04/14 13:25:49;;;;;;;1.20;0.93;;;;;;;;;;5439953;26;20323;-60
2024/04/14 13:28:18;;;;;;;2.85;1.30;;;;;;;;;;5439198;26;20595;-60
2024/04/14 13:30:47;;;;;;;1.30;1.27;;;;;;;;;;5436962;26;20726;-60
2024/04/14 13:33:14;;;;;;;2.65;1.38;;;;;;;;;;5439854;26;20273;-60
2024/04/14 13:35:43;;;;;;;2.15;1.35;;;;;;;;;;5439991;26;20227;-60
2024/04/14 13:38:09;;;;;;;3.30;1.20;;;;;;;;;;5455984;26;20277;-59
2024/04/14 13:40:41;;;;;;;1.92;1.17;;;;;;;;;;5440180;26;20231;-60
2024/04/14 13:43:08;;;;;;;2.97;1.10;;;;;;;;;;5440084;26;20239;-60
2024/04/14 13:45:40;;;;;;;1.15;1.05;;;;;;;;;;5440086;26;20791;-60
2024/04/14 13:48:06;;;;;;;1.17;1.17;;;;;;;;;;5439723;26;20257;-60
2024/04/14 13:50:36;;;;;;;1.98;1.30;;;;;;;;;;5439273;26;20346;-60
2024/04/14 13:53:03;;;;;;;0.90;0.90;;;;;;;;;;5437498;26;20729;-60
2024/04/14 13:55:32;;;;;;;2.25;1.30;;;;;;;;;;5440006;26;20780;-60
2024/04/14 13:58:01;;;;;;;1.92;1.60;;;;;;;;;;5440045;26;20274;-60
2024/04/14 14:00:32;;;;;;;1.80;1.55;;;;;;;;;;5438277;26;20231;-60
2024/04/14 14:03:01;;;;;;;1.67;0.98;;;;;;;;;;5437362;26;20330;-60
2024/04/14 14:05:31;;;;;;;4.13;1.27;;;;;;;;;;5439256;26;20222;-60
2024/04/14 14:07:59;;;;;;;2.28;1.00;;;;;;;;;;5439930;26;20223;-60
2024/04/14 14:10:28;;;;;;;1.52;0.85;;;;;;;;;;5439828;26;20276;-60
2024/04/14 14:12:54;;;;;;;1.65;1.02;;;;;;;;;;5430941;26;20231;-60
2024/04/14 14:15:24;;;;;;;8.57;7.78;;;;;;;;;;5433127;26;20231;-60
2024/04/14 14:17:52;;;;;;;3.42;2.92;;;;;;;;;;5439530;26;20738;-59
2024/04/14 14:20:21;;;;;;;1.80;1.15;;;;;;;;;;5438455;26;20230;-60
2024/04/14 14:22:50;;;;;;;1.20;1.15;;;;;;;;;;5439528;26;20226;-60
2024/04/14 14:25:17;;;;;;;2.05;2.05;;;;;;;;;;5439850;26;20615;-60
2024/04/14 14:27:46;;;;;;;6.55;4.30;;;;;;;;;;5444656;26;20273;-60
2024/04/14 14:30:12;;;;;;;21.73;19.10;;;;;;;;;;5445563;26;20281;-60
2024/04/14 14:32:41;;;;;;;3.50;3.30;;;;;;;;;;5439436;26;20230;-60
2024/04/14 14:38:01;;;;;;;1.67;1.67;;;;;;;;;;5456631;26;20391;-60
2024/04/14 14:40:30;;;;;;;1.98;1.88;;;;;;;;;;5437224;26;20433;-60
2024/04/14 14:43:03;;;;;;;16.00;14.30;;;;;;;;;;5439397;26;20231;-60
2024/04/14 14:45:29;;;;;;;12.35;11.23;;;;;;;;;;5439454;26;20733;-60
2024/04/14 14:47:58;;;;;;;2.80;2.17;;;;;;;;;;5439374;26;20238;-60
2024/04/14 14:50:24;;;;;;;0.95;0.95;;;;;;;;;;5453635;26;20694;-60
2024/04/14 14:52:53;;;;;;;1.70;0.70;;;;;;;;;;5424037;26;20268;-60